sensor_id;sensor_type;location;lat;lon;timestamp;temperature;humidity
68943;DHT22;60852;52.190;4.422;2023-03-23T00:01:25;13.10;79.48
68943;DHT22;60852;52.190;4.422;2023-03-23T00:03:53;13.10;79.39
68943;DHT22;60852;52.190;4.422;2023-03-23T00:06:24;13.15;79.23
68943;DHT22;60852;52.190;4.422;2023-03-23T00:08:52;13.18;79.02
68943;DHT22;60852;52.190;4.422;2023-03-23T01:22:02;13.24;77.43
68943;DHT22;60852;52.190;4.422;2023-03-23T01:24:28;13.25;77.33
68943;DHT22;60852;52.190;4.422;2023-03-23T01:26:53;13.25;77.53
68943;DHT22;60852;52.190;4.422;2023-03-23T01:29:19;13.17;77.51
68943;DHT22;60852;52.190;4.422;2023-03-23T01:31:45;13.17;77.67
68943;DHT22;60852;52.190;4.422;2023-03-23T01:34:10;13.10;77.96
68943;DHT22;60852;52.190;4.422;2023-03-23T01:36:35;13.10;77.83
68943;DHT22;60852;52.190;4.422;2023-03-23T01:39:04;13.12;77.92
68943;DHT22;60852;52.190;4.422;2023-03-23T01:41:30;13.11;77.86
68943;DHT22;60852;52.190;4.422;2023-03-23T01:44:03;13.14;77.91
68943;DHT22;60852;52.190;4.422;2023-03-23T01:46:34;13.14;77.90
68943;DHT22;60852;52.190;4.422;2023-03-23T01:49:07;13.11;77.85
68943;DHT22;60852;52.190;4.422;2023-03-23T01:52:03;13.18;77.91
68943;DHT22;60852;52.190;4.422;2023-03-23T01:54:28;13.12;77.95
68943;DHT22;60852;52.190;4.422;2023-03-23T01:57:09;13.14;77.96
68943;DHT22;60852;52.190;4.422;2023-03-23T01:59:37;13.14;77.88
68943;DHT22;60852;52.190;4.422;2023-03-23T02:02:03;13.15;77.95
68943;DHT22;60852;52.190;4.422;2023-03-23T02:04:31;13.04;78.01
68943;DHT22;60852;52.190;4.422;2023-03-23T02:06:59;13.08;78.24
68943;DHT22;60852;52.190;4.422;2023-03-23T02:09:27;13.06;78.14
68943;DHT22;60852;52.190;4.422;2023-03-23T02:11:54;13.01;78.34
68943;DHT22;60852;52.190;4.422;2023-03-23T02:14:21;13.01;78.46
68943;DHT22;60852;52.190;4.422;2023-03-23T02:30:37;13.06;78.28
68943;DHT22;60852;52.190;4.422;2023-03-23T02:36:28;12.96;78.58
68943;DHT22;60852;52.190;4.422;2023-03-23T02:41:38;12.87;79.91
68943;DHT22;60852;52.190;4.422;2023-03-23T02:44:07;12.84;80.53
68943;DHT22;60852;52.190;4.422;2023-03-23T02:46:35;12.90;80.55
68943;DHT22;60852;52.190;4.422;2023-03-23T02:49:04;12.90;80.20
68943;DHT22;60852;52.190;4.422;2023-03-23T02:51:34;12.90;80.38
68943;DHT22;60852;52.190;4.422;2023-03-23T02:54:03;12.81;80.16
68943;DHT22;60852;52.190;4.422;2023-03-23T02:56:31;12.80;79.90
68943;DHT22;60852;52.190;4.422;2023-03-23T02:58:58;12.83;79.86
68943;DHT22;60852;52.190;4.422;2023-03-23T03:04:01;12.96;79.87
68943;DHT22;60852;52.190;4.422;2023-03-23T03:06:38;12.81;80.36
68943;DHT22;60852;52.190;4.422;2023-03-23T03:11:45;12.79;81.67
68943;DHT22;60852;52.190;4.422;2023-03-23T03:14:24;12.60;82.28
68943;DHT22;60852;52.190;4.422;2023-03-23T03:19:43;12.46;82.60
68943;DHT22;60852;52.190;4.422;2023-03-23T03:22:12;12.52;82.44
68943;DHT22;60852;52.190;4.422;2023-03-23T03:24:40;12.46;81.96
68943;DHT22;60852;52.190;4.422;2023-03-23T03:27:14;12.50;81.26
68943;DHT22;60852;52.190;4.422;2023-03-23T03:29:45;12.49;81.27
68943;DHT22;60852;52.190;4.422;2023-03-23T03:32:19;12.49;80.70
68943;DHT22;60852;52.190;4.422;2023-03-23T03:34:45;12.38;80.86
68943;DHT22;60852;52.190;4.422;2023-03-23T03:37:13;12.39;81.18
68943;DHT22;60852;52.190;4.422;2023-03-23T03:39:39;12.36;80.56
68943;DHT22;60852;52.190;4.422;2023-03-23T03:42:05;12.42;80.23
68943;DHT22;60852;52.190;4.422;2023-03-23T03:44:33;12.48;80.21
68943;DHT22;60852;52.190;4.422;2023-03-23T03:46:58;12.50;79.89
68943;DHT22;60852;52.190;4.422;2023-03-23T03:49:24;12.56;79.75
68943;DHT22;60852;52.190;4.422;2023-03-23T03:51:51;12.53;80.31
68943;DHT22;60852;52.190;4.422;2023-03-23T03:54:16;12.49;80.96
68943;DHT22;60852;52.190;4.422;2023-03-23T03:56:42;12.48;82.10
68943;DHT22;60852;52.190;4.422;2023-03-23T03:59:09;12.48;82.89
68943;DHT22;60852;52.190;4.422;2023-03-23T04:01:36;12.32;83.65
68943;DHT22;60852;52.190;4.422;2023-03-23T04:04:03;12.22;84.20
68943;DHT22;60852;52.190;4.422;2023-03-23T04:06:30;12.09;84.77
68943;DHT22;60852;52.190;4.422;2023-03-23T04:08:58;12.01;85.68
68943;DHT22;60852;52.190;4.422;2023-03-23T04:11:24;11.90;85.62
68943;DHT22;60852;52.190;4.422;2023-03-23T04:13:50;11.82;85.69
68943;DHT22;60852;52.190;4.422;2023-03-23T04:16:16;11.75;85.88
68943;DHT22;60852;52.190;4.422;2023-03-23T04:18:42;11.78;85.69
68943;DHT22;60852;52.190;4.422;2023-03-23T04:21:08;11.81;85.60
68943;DHT22;60852;52.190;4.422;2023-03-23T04:23:34;11.81;85.11
68943;DHT22;60852;52.190;4.422;2023-03-23T04:26:01;11.77;84.97
68943;DHT22;60852;52.190;4.422;2023-03-23T04:28:28;11.81;84.55
68943;DHT22;60852;52.190;4.422;2023-03-23T04:30:55;11.80;84.06
68943;DHT22;60852;52.190;4.422;2023-03-23T04:33:22;11.77;83.87
68943;DHT22;60852;52.190;4.422;2023-03-23T04:35:51;11.80;83.70
68943;DHT22;60852;52.190;4.422;2023-03-23T04:38:20;11.78;83.26
68943;DHT22;60852;52.190;4.422;2023-03-23T04:40:48;11.77;83.04
68943;DHT22;60852;52.190;4.422;2023-03-23T04:43:17;11.80;82.81
68943;DHT22;60852;52.190;4.422;2023-03-23T04:45:47;11.74;83.10
68943;DHT22;60852;52.190;4.422;2023-03-23T04:48:12;11.78;82.84
68943;DHT22;60852;52.190;4.422;2023-03-23T04:50:39;11.85;82.72
68943;DHT22;60852;52.190;4.422;2023-03-23T04:53:05;11.82;82.40
68943;DHT22;60852;52.190;4.422;2023-03-23T04:55:35;11.87;82.57
68943;DHT22;60852;52.190;4.422;2023-03-23T04:58:03;11.81;82.06
68943;DHT22;60852;52.190;4.422;2023-03-23T05:00:29;11.84;82.04
68943;DHT22;60852;52.190;4.422;2023-03-23T05:02:54;11.80;82.07
68943;DHT22;60852;52.190;4.422;2023-03-23T05:05:21;11.88;81.83
68943;DHT22;60852;52.190;4.422;2023-03-23T05:07:47;11.81;81.68
68943;DHT22;60852;52.190;4.422;2023-03-23T05:10:14;11.75;81.99
68943;DHT22;60852;52.190;4.422;2023-03-23T05:12:40;11.73;82.00
68943;DHT22;60852;52.190;4.422;2023-03-23T05:15:08;11.64;82.19
68943;DHT22;60852;52.190;4.422;2023-03-23T05:17:34;11.70;82.30
68943;DHT22;60852;52.190;4.422;2023-03-23T05:20:00;11.70;82.57
68943;DHT22;60852;52.190;4.422;2023-03-23T05:22:27;11.60;82.47
68943;DHT22;60852;52.190;4.422;2023-03-23T05:24:53;11.63;82.92
68943;DHT22;60852;52.190;4.422;2023-03-23T05:27:19;11.53;82.94
68943;DHT22;60852;52.190;4.422;2023-03-23T05:29:46;11.50;83.23
68943;DHT22;60852;52.190;4.422;2023-03-23T05:32:16;11.50;83.02
68943;DHT22;60852;52.190;4.422;2023-03-23T05:34:42;11.49;83.27
68943;DHT22;60852;52.190;4.422;2023-03-23T05:37:09;11.56;82.98
68943;DHT22;60852;52.190;4.422;2023-03-23T05:39:36;11.60;82.61
68943;DHT22;60852;52.190;4.422;2023-03-23T05:42:03;11.59;82.70
68943;DHT22;60852;52.190;4.422;2023-03-23T05:44:29;11.59;82.46
68943;DHT22;60852;52.190;4.422;2023-03-23T05:46:54;11.67;82.16
68943;DHT22;60852;52.190;4.422;2023-03-23T05:49:20;11.71;82.00
68943;DHT22;60852;52.190;4.422;2023-03-23T05:51:47;11.75;81.75
68943;DHT22;60852;52.190;4.422;2023-03-23T05:54:13;11.75;81.46
68943;DHT22;60852;52.190;4.422;2023-03-23T05:56:39;11.73;81.66
68943;DHT22;60852;52.190;4.422;2023-03-23T05:59:05;11.77;81.56
68943;DHT22;60852;52.190;4.422;2023-03-23T06:01:31;11.82;81.42
68943;DHT22;60852;52.190;4.422;2023-03-23T06:03:58;11.80;81.45
68943;DHT22;60852;52.190;4.422;2023-03-23T06:06:29;11.78;81.36
68943;DHT22;60852;52.190;4.422;2023-03-23T06:08:56;11.78;81.67
68943;DHT22;60852;52.190;4.422;2023-03-23T06:11:25;11.71;81.50
68943;DHT22;60852;52.190;4.422;2023-03-23T06:13:52;11.80;81.42
68943;DHT22;60852;52.190;4.422;2023-03-23T06:16:17;11.82;81.18
68943;DHT22;60852;52.190;4.422;2023-03-23T06:18:44;11.78;81.27
68943;DHT22;60852;52.190;4.422;2023-03-23T06:21:11;11.81;81.20
68943;DHT22;60852;52.190;4.422;2023-03-23T06:23:37;11.73;81.20
68943;DHT22;60852;52.190;4.422;2023-03-23T06:26:06;11.75;81.05
68943;DHT22;60852;52.190;4.422;2023-03-23T06:28:33;11.75;81.03
68943;DHT22;60852;52.190;4.422;2023-03-23T06:31:01;11.74;80.96
68943;DHT22;60852;52.190;4.422;2023-03-23T06:33:27;11.71;81.04
68943;DHT22;60852;52.190;4.422;2023-03-23T06:35:52;11.78;80.84
68943;DHT22;60852;52.190;4.422;2023-03-23T06:38:18;11.78;80.55
68943;DHT22;60852;52.190;4.422;2023-03-23T06:40:43;11.77;80.60
68943;DHT22;60852;52.190;4.422;2023-03-23T06:43:12;11.84;80.32
68943;DHT22;60852;52.190;4.422;2023-03-23T06:45:39;11.84;80.13
68943;DHT22;60852;52.190;4.422;2023-03-23T06:48:05;11.80;80.14
68943;DHT22;60852;52.190;4.422;2023-03-23T06:50:31;11.92;80.17
68943;DHT22;60852;52.190;4.422;2023-03-23T06:52:57;11.85;79.73
68943;DHT22;60852;52.190;4.422;2023-03-23T06:55:22;11.87;79.75
68943;DHT22;60852;52.190;4.422;2023-03-23T06:57:48;11.88;79.75
68943;DHT22;60852;52.190;4.422;2023-03-23T07:00:13;11.87;79.55
68943;DHT22;60852;52.190;4.422;2023-03-23T07:02:40;11.82;79.56
68943;DHT22;60852;52.190;4.422;2023-03-23T07:05:10;11.88;79.64
68943;DHT22;60852;52.190;4.422;2023-03-23T07:07:40;11.85;79.20
68943;DHT22;60852;52.190;4.422;2023-03-23T07:10:08;11.81;79.35
68943;DHT22;60852;52.190;4.422;2023-03-23T07:12:36;11.70;79.49
68943;DHT22;60852;52.190;4.422;2023-03-23T07:15:03;11.71;79.47
68943;DHT22;60852;52.190;4.422;2023-03-23T07:17:28;11.59;79.48
68943;DHT22;60852;52.190;4.422;2023-03-23T07:19:54;11.63;79.47
68943;DHT22;60852;52.190;4.422;2023-03-23T07:22:19;11.59;79.58
68943;DHT22;60852;52.190;4.422;2023-03-23T07:24:45;11.59;79.18
68943;DHT22;60852;52.190;4.422;2023-03-23T07:27:11;11.49;79.55
68943;DHT22;60852;52.190;4.422;2023-03-23T07:29:36;11.60;79.49
68943;DHT22;60852;52.190;4.422;2023-03-23T07:32:05;11.64;79.49
68943;DHT22;60852;52.190;4.422;2023-03-23T07:34:32;11.64;79.35
68943;DHT22;60852;52.190;4.422;2023-03-23T07:36:58;11.73;79.22
68943;DHT22;60852;52.190;4.422;2023-03-23T07:39:24;11.81;79.39
68943;DHT22;60852;52.190;4.422;2023-03-23T07:41:51;11.87;79.12
68943;DHT22;60852;52.190;4.422;2023-03-23T07:44:17;11.85;79.06
68943;DHT22;60852;52.190;4.422;2023-03-23T07:46:43;11.98;78.71
68943;DHT22;60852;52.190;4.422;2023-03-23T07:49:09;12.09;78.52
68943;DHT22;60852;52.190;4.422;2023-03-23T07:51:35;12.18;78.28
68943;DHT22;60852;52.190;4.422;2023-03-23T07:54:04;12.18;77.69
68943;DHT22;60852;52.190;4.422;2023-03-23T07:56:30;12.29;77.92
68943;DHT22;60852;52.190;4.422;2023-03-23T07:58:56;12.24;77.41
68943;DHT22;60852;52.190;4.422;2023-03-23T08:01:21;12.28;77.90
68943;DHT22;60852;52.190;4.422;2023-03-23T08:03:48;12.42;77.62
68943;DHT22;60852;52.190;4.422;2023-03-23T08:06:14;12.39;77.33
68943;DHT22;60852;52.190;4.422;2023-03-23T08:08:40;12.45;77.11
68943;DHT22;60852;52.190;4.422;2023-03-23T08:11:06;12.43;77.62
68943;DHT22;60852;52.190;4.422;2023-03-23T08:13:32;12.48;76.87
68943;DHT22;60852;52.190;4.422;2023-03-23T08:15:59;12.57;76.54
68943;DHT22;60852;52.190;4.422;2023-03-23T08:18:29;12.61;76.49
68943;DHT22;60852;52.190;4.422;2023-03-23T08:20:55;12.63;76.25
68943;DHT22;60852;52.190;4.422;2023-03-23T08:23:21;12.60;76.43
68943;DHT22;60852;52.190;4.422;2023-03-23T08:25:48;12.67;76.47
68943;DHT22;60852;52.190;4.422;2023-03-23T08:28:14;12.77;76.26
68943;DHT22;60852;52.190;4.422;2023-03-23T08:30:40;12.93;76.29
68943;DHT22;60852;52.190;4.422;2023-03-23T08:33:06;12.87;75.72
68943;DHT22;60852;52.190;4.422;2023-03-23T08:35:32;12.86;75.67
68943;DHT22;60852;52.190;4.422;2023-03-23T08:37:57;12.83;75.34
68943;DHT22;60852;52.190;4.422;2023-03-23T08:40:24;12.80;75.61
68943;DHT22;60852;52.190;4.422;2023-03-23T08:42:51;12.57;75.83
68943;DHT22;60852;52.190;4.422;2023-03-23T08:45:21;12.52;76.59
68943;DHT22;60852;52.190;4.422;2023-03-23T08:47:48;12.63;76.58
68943;DHT22;60852;52.190;4.422;2023-03-23T08:50:18;12.61;76.49
68943;DHT22;60852;52.190;4.422;2023-03-23T08:52:45;12.67;75.90
68943;DHT22;60852;52.190;4.422;2023-03-23T08:55:11;12.77;76.07
68943;DHT22;60852;52.190;4.422;2023-03-23T08:57:37;12.87;75.33
68943;DHT22;60852;52.190;4.422;2023-03-23T09:00:06;12.79;74.90
68943;DHT22;60852;52.190;4.422;2023-03-23T09:02:48;12.72;74.49
68943;DHT22;60852;52.190;4.422;2023-03-23T09:05:20;12.79;74.32
68943;DHT22;60852;52.190;4.422;2023-03-23T09:07:49;12.80;74.46
68943;DHT22;60852;52.190;4.422;2023-03-23T09:10:16;12.90;74.39
68943;DHT22;60852;52.190;4.422;2023-03-23T09:12:43;13.00;73.95
68943;DHT22;60852;52.190;4.422;2023-03-23T09:15:11;13.08;73.40
68943;DHT22;60852;52.190;4.422;2023-03-23T09:17:44;12.91;73.46
68943;DHT22;60852;52.190;4.422;2023-03-23T09:20:12;12.81;73.58
68943;DHT22;60852;52.190;4.422;2023-03-23T09:22:40;12.90;73.61
68943;DHT22;60852;52.190;4.422;2023-03-23T09:25:07;12.80;74.21
68943;DHT22;60852;52.190;4.422;2023-03-23T09:27:34;12.86;74.03
68943;DHT22;60852;52.190;4.422;2023-03-23T09:30:03;13.03;74.49
68943;DHT22;60852;52.190;4.422;2023-03-23T09:32:32;12.93;74.43
68943;DHT22;60852;52.190;4.422;2023-03-23T09:34:59;12.84;74.74
68943;DHT22;60852;52.190;4.422;2023-03-23T09:37:25;12.87;75.10
68943;DHT22;60852;52.190;4.422;2023-03-23T09:39:51;13.00;75.12
68943;DHT22;60852;52.190;4.422;2023-03-23T09:45:05;13.06;74.76
68943;DHT22;60852;52.190;4.422;2023-03-23T09:47:43;13.07;74.66
68943;DHT22;60852;52.190;4.422;2023-03-23T09:50:17;12.97;74.73
68943;DHT22;60852;52.190;4.422;2023-03-23T09:52:56;13.15;74.71
68943;DHT22;60852;52.190;4.422;2023-03-23T09:55:24;13.29;74.03
68943;DHT22;60852;52.190;4.422;2023-03-23T09:58:20;13.15;74.16
68943;DHT22;60852;52.190;4.422;2023-03-23T10:00:59;13.31;74.22
68943;DHT22;60852;52.190;4.422;2023-03-23T10:03:34;13.10;73.61
68943;DHT22;60852;52.190;4.422;2023-03-23T10:06:02;13.10;73.62
68943;DHT22;60852;52.190;4.422;2023-03-23T10:08:31;12.91;74.28
68943;DHT22;60852;52.190;4.422;2023-03-23T10:13:52;13.25;73.73
68943;DHT22;60852;52.190;4.422;2023-03-23T10:16:23;13.32;73.63
68943;DHT22;60852;52.190;4.422;2023-03-23T10:21:29;13.45;72.14
68943;DHT22;60852;52.190;4.422;2023-03-23T10:24:03;13.31;72.70
68943;DHT22;60852;52.190;4.422;2023-03-23T10:31:39;13.66;72.38
68943;DHT22;60852;52.190;4.422;2023-03-23T10:34:13;13.95;71.24
68943;DHT22;60852;52.190;4.422;2023-03-23T10:37:02;14.38;68.66
68943;DHT22;60852;52.190;4.422;2023-03-23T10:39:43;14.92;68.01
68943;DHT22;60852;52.190;4.422;2023-03-23T10:42:10;15.30;66.08
68943;DHT22;60852;52.190;4.422;2023-03-23T10:44:36;15.51;65.25
68943;DHT22;60852;52.190;4.422;2023-03-23T10:47:07;15.20;64.37
68943;DHT22;60852;52.190;4.422;2023-03-23T10:49:38;15.26;63.93
68943;DHT22;60852;52.190;4.422;2023-03-23T10:52:26;15.18;65.14
68943;DHT22;60852;52.190;4.422;2023-03-23T10:55:14;15.16;64.45
68943;DHT22;60852;52.190;4.422;2023-03-23T10:57:46;15.07;64.91
68943;DHT22;60852;52.190;4.422;2023-03-23T11:00:23;15.18;63.79
68943;DHT22;60852;52.190;4.422;2023-03-23T11:05:47;14.52;66.82
68943;DHT22;60852;52.190;4.422;2023-03-23T11:08:16;15.05;67.38
68943;DHT22;60852;52.190;4.422;2023-03-23T11:10:55;15.39;65.72
68943;DHT22;60852;52.190;4.422;2023-03-23T11:13:23;15.22;65.88
68943;DHT22;60852;52.190;4.422;2023-03-23T11:15:52;15.13;66.09
68943;DHT22;60852;52.190;4.422;2023-03-23T11:18:21;14.98;66.98
68943;DHT22;60852;52.190;4.422;2023-03-23T11:20:54;15.00;66.17
68943;DHT22;60852;52.190;4.422;2023-03-23T11:29:18;15.09;66.58
68943;DHT22;60852;52.190;4.422;2023-03-23T11:31:47;15.27;66.23
68943;DHT22;60852;52.190;4.422;2023-03-23T11:34:30;15.19;65.40
68943;DHT22;60852;52.190;4.422;2023-03-23T11:37:08;14.91;66.38
68943;DHT22;60852;52.190;4.422;2023-03-23T11:42:22;15.29;64.88
68943;DHT22;60852;52.190;4.422;2023-03-23T11:44:48;15.03;64.68
68943;DHT22;60852;52.190;4.422;2023-03-23T11:47:28;14.81;63.23
68943;DHT22;60852;52.190;4.422;2023-03-23T11:50:12;14.93;64.77
68943;DHT22;60852;52.190;4.422;2023-03-23T11:55:18;15.02;63.81
68943;DHT22;60852;52.190;4.422;2023-03-23T11:57:44;15.15;63.35
68943;DHT22;60852;52.190;4.422;2023-03-23T12:00:18;15.00;62.96
68943;DHT22;60852;52.190;4.422;2023-03-23T12:06:02;14.72;64.24
68943;DHT22;60852;52.190;4.422;2023-03-23T12:08:48;14.88;65.21
68943;DHT22;60852;52.190;4.422;2023-03-23T12:14:09;15.03;65.66
68943;DHT22;60852;52.190;4.422;2023-03-23T12:16:44;15.16;65.87
68943;DHT22;60852;52.190;4.422;2023-03-23T12:27:22;14.91;65.80
68943;DHT22;60852;52.190;4.422;2023-03-23T12:35:22;14.81;66.67
68943;DHT22;60852;52.190;4.422;2023-03-23T12:43:23;15.18;67.49
68943;DHT22;60852;52.190;4.422;2023-03-23T12:46:02;15.19;67.01
68943;DHT22;60852;52.190;4.422;2023-03-23T12:48:47;15.03;67.71
68943;DHT22;60852;52.190;4.422;2023-03-23T12:56:31;15.05;66.95
68943;DHT22;60852;52.190;4.422;2023-03-23T13:01:55;14.98;66.19
68943;DHT22;60852;52.190;4.422;2023-03-23T13:04:29;14.89;66.20
68943;DHT22;60852;52.190;4.422;2023-03-23T13:06:59;14.81;66.50
68943;DHT22;60852;52.190;4.422;2023-03-23T13:12:14;14.79;66.13
68943;DHT22;60852;52.190;4.422;2023-03-23T13:14:56;14.71;66.47
68943;DHT22;60852;52.190;4.422;2023-03-23T13:17:49;14.78;65.86
68943;DHT22;60852;52.190;4.422;2023-03-23T13:23:22;14.79;65.84
68943;DHT22;60852;52.190;4.422;2023-03-23T13:25:52;14.79;65.89
68943;DHT22;60852;52.190;4.422;2023-03-23T13:28:21;14.82;66.15
68943;DHT22;60852;52.190;4.422;2023-03-23T13:31:03;14.82;66.30
68943;DHT22;60852;52.190;4.422;2023-03-23T13:33:32;14.84;66.69
68943;DHT22;60852;52.190;4.422;2023-03-23T13:36:10;14.75;66.78
68943;DHT22;60852;52.190;4.422;2023-03-23T13:38:39;14.76;66.90
68943;DHT22;60852;52.190;4.422;2023-03-23T13:41:17;14.71;67.09
68943;DHT22;60852;52.190;4.422;2023-03-23T13:43:44;14.58;67.55
68943;DHT22;60852;52.190;4.422;2023-03-23T14:04:57;15.10;66.16
68943;DHT22;60852;52.190;4.422;2023-03-23T14:07:57;15.30;65.30
68943;DHT22;60852;52.190;4.422;2023-03-23T14:10:36;15.47;64.18
68943;DHT22;60852;52.190;4.422;2023-03-23T14:13:09;15.42;63.61
68943;DHT22;60852;52.190;4.422;2023-03-23T14:15:59;15.40;64.49
68943;DHT22;60852;52.190;4.422;2023-03-23T14:18:31;15.55;64.18
68943;DHT22;60852;52.190;4.422;2023-03-23T14:20:58;15.54;64.03
68943;DHT22;60852;52.190;4.422;2023-03-23T14:23:24;15.40;63.90
68943;DHT22;60852;52.190;4.422;2023-03-23T14:25:59;15.18;64.56
68943;DHT22;60852;52.190;4.422;2023-03-23T14:28:31;15.15;64.94
68943;DHT22;60852;52.190;4.422;2023-03-23T14:30:58;15.12;65.39
68943;DHT22;60852;52.190;4.422;2023-03-23T14:33:26;15.20;65.55
68943;DHT22;60852;52.190;4.422;2023-03-23T14:35:52;15.30;65.42
68943;DHT22;60852;52.190;4.422;2023-03-23T14:38:21;15.43;65.02
68943;DHT22;60852;52.190;4.422;2023-03-23T14:40:50;15.34;65.06
68943;DHT22;60852;52.190;4.422;2023-03-23T14:43:19;15.27;65.13
68943;DHT22;60852;52.190;4.422;2023-03-23T14:45:52;15.23;65.34
68943;DHT22;60852;52.190;4.422;2023-03-23T14:48:18;15.33;64.83
68943;DHT22;60852;52.190;4.422;2023-03-23T14:53:25;15.37;64.33
68943;DHT22;60852;52.190;4.422;2023-03-23T14:55:54;15.46;63.54
68943;DHT22;60852;52.190;4.422;2023-03-23T14:58:22;15.50;63.23
68943;DHT22;60852;52.190;4.422;2023-03-23T15:01:06;15.49;63.12
68943;DHT22;60852;52.190;4.422;2023-03-23T15:04:22;15.42;62.82
68943;DHT22;60852;52.190;4.422;2023-03-23T15:06:26;15.44;63.02
68943;DHT22;60852;52.190;4.422;2023-03-23T15:08:56;15.46;63.32
68943;DHT22;60852;52.190;4.422;2023-03-23T15:11:28;15.43;63.38
68943;DHT22;60852;52.190;4.422;2023-03-23T15:13:58;15.47;63.25
68943;DHT22;60852;52.190;4.422;2023-03-23T15:16:30;15.46;63.38
68943;DHT22;60852;52.190;4.422;2023-03-23T15:19:05;15.53;63.34
68943;DHT22;60852;52.190;4.422;2023-03-23T15:21:47;15.60;63.19
68943;DHT22;60852;52.190;4.422;2023-03-23T15:24:26;15.58;62.90
68943;DHT22;60852;52.190;4.422;2023-03-23T15:26:52;15.51;62.99
68943;DHT22;60852;52.190;4.422;2023-03-23T15:29:21;15.39;62.99
68943;DHT22;60852;52.190;4.422;2023-03-23T15:31:52;15.46;63.33
68943;DHT22;60852;52.190;4.422;2023-03-23T15:34:34;15.49;63.23
68943;DHT22;60852;52.190;4.422;2023-03-23T15:37:20;15.63;63.19
68943;DHT22;60852;52.190;4.422;2023-03-23T15:39:46;15.68;62.38
68943;DHT22;60852;52.190;4.422;2023-03-23T15:42:32;15.68;62.28
68943;DHT22;60852;52.190;4.422;2023-03-23T15:47:49;15.83;61.70
68943;DHT22;60852;52.190;4.422;2023-03-23T15:50:16;15.78;61.56
68943;DHT22;60852;52.190;4.422;2023-03-23T15:52:43;15.91;62.20
68943;DHT22;60852;52.190;4.422;2023-03-23T15:55:36;15.95;62.12
68943;DHT22;60852;52.190;4.422;2023-03-23T15:58:10;15.93;61.62
68943;DHT22;60852;52.190;4.422;2023-03-23T16:00:37;15.84;61.94
68943;DHT22;60852;52.190;4.422;2023-03-23T16:03:10;15.73;62.25
68943;DHT22;60852;52.190;4.422;2023-03-23T16:05:37;15.49;63.01
68943;DHT22;60852;52.190;4.422;2023-03-23T16:08:02;15.47;63.45
68943;DHT22;60852;52.190;4.422;2023-03-23T16:10:29;15.43;63.10
68943;DHT22;60852;52.190;4.422;2023-03-23T16:12:55;15.53;63.39
68943;DHT22;60852;52.190;4.422;2023-03-23T16:15:20;15.43;62.82
68943;DHT22;60852;52.190;4.422;2023-03-23T16:17:46;15.49;63.21
68943;DHT22;60852;52.190;4.422;2023-03-23T16:20:20;15.46;63.12
68943;DHT22;60852;52.190;4.422;2023-03-23T16:22:47;15.40;63.12
68943;DHT22;60852;52.190;4.422;2023-03-23T16:25:13;15.37;62.87
68943;DHT22;60852;52.190;4.422;2023-03-23T16:27:40;15.32;63.10
68943;DHT22;60852;52.190;4.422;2023-03-23T16:30:15;15.27;63.16
68943;DHT22;60852;52.190;4.422;2023-03-23T16:32:41;15.20;63.36
68943;DHT22;60852;52.190;4.422;2023-03-23T16:35:08;15.15;63.30
68943;DHT22;60852;52.190;4.422;2023-03-23T16:37:33;15.19;63.71
68943;DHT22;60852;52.190;4.422;2023-03-23T16:40:00;15.13;63.73
68943;DHT22;60852;52.190;4.422;2023-03-23T16:42:25;15.13;63.60
68943;DHT22;60852;52.190;4.422;2023-03-23T16:44:51;15.16;63.65
68943;DHT22;60852;52.190;4.422;2023-03-23T16:47:19;15.12;63.97
68943;DHT22;60852;52.190;4.422;2023-03-23T16:49:48;15.19;63.93
68943;DHT22;60852;52.190;4.422;2023-03-23T16:52:13;15.18;63.88
68943;DHT22;60852;52.190;4.422;2023-03-23T16:54:39;15.10;64.02
68943;DHT22;60852;52.190;4.422;2023-03-23T16:57:04;15.06;64.35
68943;DHT22;60852;52.190;4.422;2023-03-23T16:59:30;15.00;64.49
68943;DHT22;60852;52.190;4.422;2023-03-23T17:01:56;15.02;64.28
68943;DHT22;60852;52.190;4.422;2023-03-23T17:04:28;15.00;64.21
68943;DHT22;60852;52.190;4.422;2023-03-23T17:06:53;14.99;64.38
68943;DHT22;60852;52.190;4.422;2023-03-23T17:09:19;14.92;63.96
68943;DHT22;60852;52.190;4.422;2023-03-23T17:11:44;14.92;64.29
68943;DHT22;60852;52.190;4.422;2023-03-23T17:14:09;14.98;64.37
68943;DHT22;60852;52.190;4.422;2023-03-23T17:16:35;14.93;64.23
68943;DHT22;60852;52.190;4.422;2023-03-23T17:19:01;14.98;64.63
68943;DHT22;60852;52.190;4.422;2023-03-23T17:21:26;14.92;64.34
68943;DHT22;60852;52.190;4.422;2023-03-23T17:23:52;14.89;64.83
68943;DHT22;60852;52.190;4.422;2023-03-23T17:26:18;14.92;65.09
68943;DHT22;60852;52.190;4.422;2023-03-23T17:28:43;14.86;65.12
68943;DHT22;60852;52.190;4.422;2023-03-23T17:31:08;14.92;65.39
68943;DHT22;60852;52.190;4.422;2023-03-23T17:33:34;14.93;65.41
68943;DHT22;60852;52.190;4.422;2023-03-23T17:35:59;14.95;65.22
68943;DHT22;60852;52.190;4.422;2023-03-23T17:38:25;15.02;65.40
68943;DHT22;60852;52.190;4.422;2023-03-23T17:41:01;14.95;64.82
68943;DHT22;60852;52.190;4.422;2023-03-23T17:43:28;14.88;65.16
68943;DHT22;60852;52.190;4.422;2023-03-23T17:45:54;14.86;65.39
68943;DHT22;60852;52.190;4.422;2023-03-23T17:48:20;14.88;65.45
68943;DHT22;60852;52.190;4.422;2023-03-23T17:50:47;14.95;65.54
68943;DHT22;60852;52.190;4.422;2023-03-23T17:53:13;14.92;65.63
68943;DHT22;60852;52.190;4.422;2023-03-23T17:55:38;14.99;65.83
68943;DHT22;60852;52.190;4.422;2023-03-23T17:58:08;15.07;66.19
68943;DHT22;60852;52.190;4.422;2023-03-23T18:00:34;15.09;66.27
68943;DHT22;60852;52.190;4.422;2023-03-23T18:02:59;15.10;66.20
68943;DHT22;60852;52.190;4.422;2023-03-23T18:05:25;15.19;66.68
68943;DHT22;60852;52.190;4.422;2023-03-23T18:07:52;15.20;66.94
68943;DHT22;60852;52.190;4.422;2023-03-23T18:10:18;15.19;67.65
68943;DHT22;60852;52.190;4.422;2023-03-23T18:12:44;15.18;68.14
68943;DHT22;60852;52.190;4.422;2023-03-23T18:15:12;15.16;68.68
68943;DHT22;60852;52.190;4.422;2023-03-23T18:17:38;15.16;68.82
68943;DHT22;60852;52.190;4.422;2023-03-23T18:20:05;15.06;69.44
68943;DHT22;60852;52.190;4.422;2023-03-23T18:22:31;14.93;69.84
68943;DHT22;60852;52.190;4.422;2023-03-23T18:24:56;14.89;70.41
68943;DHT22;60852;52.190;4.422;2023-03-23T18:27:22;14.86;70.62
68943;DHT22;60852;52.190;4.422;2023-03-23T18:29:48;14.82;70.89
68943;DHT22;60852;52.190;4.422;2023-03-23T18:32:13;14.81;71.40
68943;DHT22;60852;52.190;4.422;2023-03-23T18:34:41;14.75;71.82
68943;DHT22;60852;52.190;4.422;2023-03-23T18:37:07;14.74;72.56
68943;DHT22;60852;52.190;4.422;2023-03-23T18:39:33;14.60;74.33
68943;DHT22;60852;52.190;4.422;2023-03-23T18:41:59;14.48;75.79
68943;DHT22;60852;52.190;4.422;2023-03-23T18:44:24;14.36;76.93
68943;DHT22;60852;52.190;4.422;2023-03-23T18:46:50;14.33;77.81
68943;DHT22;60852;52.190;4.422;2023-03-23T18:49:15;14.26;78.50
68943;DHT22;60852;52.190;4.422;2023-03-23T18:51:41;14.20;78.95